Time;durP1;ratioP1;P1;durP2;ratioP2;P2;SDS_P1;SDS_P2;PMS_P1;PMS_P2;Temp;Humidity;BMP_temperature;BMP_pressure;BME280_temperature;BME280_humidity;BME280_pressure;Samples;Min_cycle;Max_cycle;Signal;HPM_P1;HPM_P2
2021/09/25 00:00:41;;;;;;;19.38;13.45;;;10.40;99.90;;;;;;4993460;28;20120;-71
2021/09/25 00:03:06;;;;;;;18.83;13.73;;;10.40;99.90;;;;;;4993379;28;20514;-71
2021/09/25 00:05:35;;;;;;;22.02;14.27;;;10.40;99.90;;;;;;4993102;28;20033;-71
2021/09/25 00:08:02;;;;;;;17.20;12.82;;;10.40;99.90;;;;;;4993082;28;20088;-71
2021/09/25 00:10:29;;;;;;;18.15;13.73;;;10.40;99.90;;;;;;4994694;28;20030;-72
2021/09/25 00:12:55;;;;;;;18.75;13.88;;;10.40;99.90;;;;;;4993326;28;20026;-71
2021/09/25 00:15:22;;;;;;;19.60;14.13;;;10.40;99.90;;;;;;4992645;28;20033;-71
2021/09/25 00:17:48;;;;;;;23.02;14.20;;;10.40;99.90;;;;;;4993272;28;20058;-73
2021/09/25 00:20:16;;;;;;;16.95;13.25;;;10.40;99.90;;;;;;4992044;28;20026;-71
2021/09/25 00:22:42;;;;;;;17.23;12.48;;;10.40;99.90;;;;;;4996406;28;20033;-72
2021/09/25 00:25:08;;;;;;;18.08;13.77;;;10.40;99.90;;;;;;4992527;28;20034;-72
2021/09/25 00:27:34;;;;;;;23.90;12.98;;;10.30;99.90;;;;;;4993379;28;20022;-73
2021/09/25 00:30:00;;;;;;;23.50;14.00;;;10.30;99.90;;;;;;4993017;28;20037;-72
2021/09/25 00:32:26;;;;;;;18.60;12.40;;;10.20;99.90;;;;;;4992814;28;20027;-72
2021/09/25 00:34:51;;;;;;;18.67;13.63;;;10.10;99.90;;;;;;4993047;28;20026;-72
2021/09/25 00:37:17;;;;;;;20.40;12.65;;;10.10;99.90;;;;;;4996616;28;20023;-72
2021/09/25 00:39:43;;;;;;;17.60;13.80;;;10.00;99.90;;;;;;4993019;28;20426;-72
2021/09/25 00:42:09;;;;;;;19.65;13.57;;;10.00;99.90;;;;;;4993238;28;20036;-73
2021/09/25 00:44:35;;;;;;;20.50;13.00;;;9.90;99.90;;;;;;4992253;28;20030;-75
2021/09/25 00:47:00;;;;;;;19.63;13.90;;;9.90;99.90;;;;;;4992851;28;20030;-72
2021/09/25 00:49:26;;;;;;;19.20;12.90;;;9.90;99.90;;;;;;4992830;28;20485;-72
2021/09/25 00:51:52;;;;;;;21.88;14.07;;;9.80;99.90;;;;;;4994128;28;20027;-72
2021/09/25 00:54:18;;;;;;;20.85;14.55;;;9.80;99.90;;;;;;4992286;28;20469;-72
2021/09/25 00:56:47;;;;;;;23.02;15.57;;;9.80;99.90;;;;;;4994733;28;20109;-71
2021/09/25 00:59:14;;;;;;;20.65;14.95;;;9.80;99.90;;;;;;4994878;28;20464;-71
2021/09/25 01:01:41;;;;;;;27.23;16.15;;;9.70;99.90;;;;;;4993369;28;20041;-71
2021/09/25 01:04:08;;;;;;;20.90;14.82;;;9.70;99.90;;;;;;4992949;28;20077;-72
2021/09/25 01:06:33;;;;;;;25.92;15.85;;;9.70;99.90;;;;;;4992705;28;20022;-73
2021/09/25 01:08:59;;;;;;;25.25;15.55;;;9.70;99.90;;;;;;4993356;28;20390;-72
2021/09/25 01:11:26;;;;;;;24.02;16.38;;;9.70;99.90;;;;;;4993034;28;20018;-72
2021/09/25 01:13:55;;;;;;;26.38;16.60;;;9.80;99.90;;;;;;4991574;28;20054;-72
2021/09/25 01:16:23;;;;;;;24.08;16.15;;;9.80;99.90;;;;;;4992360;28;20491;-72
2021/09/25 01:18:49;;;;;;;23.30;16.52;;;9.80;99.90;;;;;;4992693;28;20026;-72
2021/09/25 01:21:14;;;;;;;20.38;15.10;;;9.70;99.90;;;;;;4999747;28;20026;-72
2021/09/25 01:23:40;;;;;;;20.48;13.80;;;9.70;99.90;;;;;;5010852;28;20025;-72
2021/09/25 01:26:06;;;;;;;22.05;12.82;;;9.50;99.90;;;;;;5012768;28;20388;-72
2021/09/25 01:28:34;;;;;;;18.13;12.23;;;9.50;99.90;;;;;;5015993;28;20030;-72
2021/09/25 01:31:01;;;;;;;18.92;12.73;;;9.50;99.90;;;;;;5018817;28;20112;-72
2021/09/25 01:33:30;;;;;;;17.73;13.20;;;9.50;99.90;;;;;;5016281;28;20029;-72
2021/09/25 01:35:57;;;;;;;23.50;13.50;;;9.40;99.90;;;;;;5020368;28;20047;-73
2021/09/25 01:38:23;;;;;;;19.90;13.88;;;9.40;99.90;;;;;;5016882;28;20029;-72
2021/09/25 01:40:48;;;;;;;20.23;13.38;;;9.40;99.90;;;;;;5023721;28;20022;-73
2021/09/25 01:43:15;;;;;;;18.25;13.00;;;9.40;99.90;;;;;;5016621;28;20026;-74
2021/09/25 01:45:42;;;;;;;18.00;12.13;;;9.40;99.90;;;;;;5027010;28;20049;-73
2021/09/25 01:48:09;;;;;;;16.58;13.23;;;9.50;99.90;;;;;;5018081;28;20514;-72
2021/09/25 01:50:35;;;;;;;16.45;12.35;;;9.50;99.90;;;;;;5016874;28;20026;-73
2021/09/25 01:53:01;;;;;;;16.17;11.80;;;9.40;99.90;;;;;;5014846;28;20038;-73
2021/09/25 01:55:26;;;;;;;19.00;13.10;;;9.30;99.90;;;;;;5016104;28;20034;-73
2021/09/25 01:57:52;;;;;;;18.83;13.88;;;9.30;99.90;;;;;;5014053;28;20073;-72
2021/09/25 02:00:19;;;;;;;17.85;13.93;;;9.40;99.90;;;;;;5016351;28;20025;-72
2021/09/25 02:02:45;;;;;;;19.42;12.93;;;9.30;99.90;;;;;;5016283;28;20105;-72
2021/09/25 02:05:11;;;;;;;18.33;13.70;;;9.20;99.90;;;;;;5015084;28;20033;-73
2021/09/25 02:07:37;;;;;;;17.88;12.98;;;9.20;99.90;;;;;;5025269;28;20025;-74
2021/09/25 02:10:04;;;;;;;18.67;12.75;;;9.10;99.90;;;;;;5028874;28;20034;-72
2021/09/25 02:12:30;;;;;;;15.93;12.70;;;9.10;99.90;;;;;;5016834;28;20053;-72
2021/09/25 02:14:56;;;;;;;16.65;12.45;;;9.10;99.90;;;;;;5014931;28;20480;-73
2021/09/25 02:17:21;;;;;;;18.25;12.55;;;9.10;99.90;;;;;;5014837;28;20022;-72
2021/09/25 02:19:48;;;;;;;18.30;13.18;;;9.10;99.90;;;;;;5015082;28;20034;-72
2021/09/25 02:22:14;;;;;;;17.02;12.20;;;9.00;99.90;;;;;;5014594;28;20160;-72
2021/09/25 02:24:40;;;;;;;19.95;14.48;;;8.90;99.90;;;;;;5014209;28;20033;-73
2021/09/25 02:27:05;;;;;;;18.70;13.30;;;8.90;99.90;;;;;;5014931;28;20030;-73
2021/09/25 02:29:31;;;;;;;20.38;13.73;;;9.00;99.90;;;;;;4994835;28;20113;-72
2021/09/25 02:31:57;;;;;;;18.90;13.45;;;9.00;99.90;;;;;;4995244;28;20555;-72
2021/09/25 02:34:23;;;;;;;20.42;14.07;;;9.10;99.90;;;;;;4994594;28;20042;-72
2021/09/25 02:36:49;;;;;;;19.77;13.25;;;9.00;99.90;;;;;;4994687;28;20057;-72
2021/09/25 02:39:15;;;;;;;18.05;13.27;;;9.00;99.90;;;;;;4994965;28;20046;-72
2021/09/25 02:41:40;;;;;;;19.08;13.80;;;9.00;99.90;;;;;;4994915;28;20054;-73
2021/09/25 02:44:06;;;;;;;21.75;14.23;;;9.00;99.90;;;;;;4995027;28;20065;-74
2021/09/25 02:46:33;;;;;;;18.48;13.38;;;9.00;99.90;;;;;;4993760;28;20031;-73
2021/09/25 02:48:58;;;;;;;18.83;13.38;;;9.00;99.90;;;;;;4994738;28;20072;-73
2021/09/25 02:51:24;;;;;;;18.27;12.18;;;8.90;99.90;;;;;;4993208;28;20497;-72
2021/09/25 02:53:50;;;;;;;18.90;12.15;;;8.90;99.90;;;;;;4994240;28;20113;-73
2021/09/25 02:56:15;;;;;;;17.73;12.57;;;8.90;99.90;;;;;;4994039;28;20035;-72
2021/09/25 02:58:41;;;;;;;18.05;12.48;;;8.90;99.90;;;;;;4994234;28;20022;-72
2021/09/25 03:01:07;;;;;;;17.27;12.40;;;8.90;99.90;;;;;;4996057;28;20053;-72
2021/09/25 03:03:32;;;;;;;18.67;12.77;;;8.90;99.90;;;;;;4995842;28;20397;-72
2021/09/25 03:05:58;;;;;;;18.67;13.30;;;8.90;99.90;;;;;;4994234;28;20084;-74
2021/09/25 03:08:24;;;;;;;18.08;12.15;;;8.90;99.90;;;;;;4997350;28;20117;-72
2021/09/25 03:10:49;;;;;;;18.23;11.95;;;8.90;99.90;;;;;;4994454;28;20033;-73
2021/09/25 03:13:15;;;;;;;19.17;12.13;;;8.80;99.90;;;;;;4994479;28;20057;-72
2021/09/25 03:15:40;;;;;;;18.15;12.40;;;8.70;99.90;;;;;;4993827;28;20030;-74
2021/09/25 03:18:06;;;;;;;17.17;12.95;;;8.70;99.90;;;;;;4994301;28;20089;-72
2021/09/25 03:20:32;;;;;;;21.83;14.45;;;8.70;99.90;;;;;;4993914;28;20089;-72
2021/09/25 03:22:57;;;;;;;17.88;13.27;;;8.70;99.90;;;;;;4994007;28;20026;-72
2021/09/25 03:25:23;;;;;;;22.33;14.68;;;8.70;99.90;;;;;;4992153;28;20081;-72
2021/09/25 03:27:54;;;;;;;17.48;12.35;;;8.70;99.90;;;;;;4994008;28;20085;-72
2021/09/25 03:30:21;;;;;;;18.00;13.43;;;8.60;99.90;;;;;;4993994;28;20022;-73
2021/09/25 03:32:47;;;;;;;20.77;13.15;;;8.60;99.90;;;;;;4993932;28;20443;-73
2021/09/25 03:35:13;;;;;;;19.20;13.23;;;8.60;99.90;;;;;;4993316;28;20026;-72
2021/09/25 03:37:39;;;;;;;20.30;13.88;;;8.60;99.90;;;;;;4993699;28;20631;-72
2021/09/25 03:40:05;;;;;;;19.52;11.77;;;8.60;99.90;;;;;;4993377;28;20026;-72
2021/09/25 03:42:31;;;;;;;21.45;13.68;;;8.60;99.90;;;;;;4993667;28;20682;-72
2021/09/25 03:44:57;;;;;;;21.33;13.30;;;8.60;99.90;;;;;;4993185;28;20058;-72
2021/09/25 03:47:22;;;;;;;21.63;13.80;;;8.60;99.90;;;;;;4993631;28;20441;-72
2021/09/25 03:49:48;;;;;;;20.60;13.48;;;8.60;99.90;;;;;;4993268;28;20535;-72
2021/09/25 03:52:14;;;;;;;20.42;13.38;;;8.60;99.90;;;;;;4992702;28;20026;-72
2021/09/25 03:54:39;;;;;;;18.17;12.40;;;8.50;99.90;;;;;;4992996;28;20552;-72
2021/09/25 03:57:05;;;;;;;23.92;13.98;;;8.60;99.90;;;;;;4993379;28;20034;-72
2021/09/25 03:59:31;;;;;;;18.77;13.63;;;8.50;99.90;;;;;;4993461;28;20030;-72
2021/09/25 04:01:57;;;;;;;24.38;14.85;;;8.50;99.90;;;;;;5011030;22;20777;-70
2021/09/25 04:04:22;;;;;;;21.40;15.00;;;8.30;99.90;;;;;;4953393;29;20019;-70
2021/09/25 04:06:48;;;;;;;28.33;16.13;;;8.30;99.90;;;;;;4954282;29;20482;-70
2021/09/25 04:09:13;;;;;;;24.60;14.95;;;8.30;99.90;;;;;;4952589;29;20026;-72
2021/09/25 04:11:39;;;;;;;19.92;13.98;;;8.40;99.90;;;;;;4954381;28;20031;-72
2021/09/25 04:14:05;;;;;;;19.90;13.30;;;8.40;99.90;;;;;;4954093;29;20038;-71
2021/09/25 04:16:32;;;;;;;18.15;13.40;;;8.40;99.90;;;;;;4953297;29;20228;-70
2021/09/25 04:18:57;;;;;;;17.20;12.40;;;8.30;99.90;;;;;;4954028;28;20489;-72
2021/09/25 04:21:23;;;;;;;18.40;12.13;;;8.30;99.90;;;;;;4954171;28;20101;-72
2021/09/25 04:23:49;;;;;;;19.63;12.88;;;8.20;99.90;;;;;;4954074;29;20385;-70
2021/09/25 04:26:16;;;;;;;19.33;11.82;;;8.10;99.90;;;;;;4953466;29;20039;-70
2021/09/25 04:28:42;;;;;;;18.25;11.75;;;8.20;99.90;;;;;;4953918;29;20032;-71
2021/09/25 04:31:07;;;;;;;21.67;12.43;;;8.20;99.90;;;;;;4953735;28;20492;-70
2021/09/25 04:33:33;;;;;;;18.13;12.38;;;8.20;99.90;;;;;;4953858;29;20023;-72
2021/09/25 04:35:59;;;;;;;19.10;11.90;;;8.10;99.90;;;;;;4945177;28;20466;-74
2021/09/25 04:38:24;;;;;;;15.93;11.93;;;8.10;99.90;;;;;;4952906;28;20030;-76
2021/09/25 04:40:50;;;;;;;15.65;11.50;;;8.00;99.90;;;;;;4953537;28;20023;-76
2021/09/25 04:43:15;;;;;;;16.75;11.82;;;8.00;99.90;;;;;;4953723;28;20038;-76
2021/09/25 04:45:41;;;;;;;20.33;13.45;;;8.00;99.90;;;;;;4950830;28;20058;-77
2021/09/25 04:48:07;;;;;;;20.58;12.95;;;8.10;99.90;;;;;;4953197;29;20027;-76
2021/09/25 04:50:33;;;;;;;17.67;12.70;;;8.10;99.90;;;;;;4953551;29;20034;-76
2021/09/25 04:53:14;;;;;;;21.77;14.23;;;8.00;99.90;;;;;;4953530;28;20082;-76
2021/09/25 04:55:41;;;;;;;24.35;14.10;;;8.10;99.90;;;;;;4949934;28;20114;-77
2021/09/25 04:58:07;;;;;;;22.30;13.60;;;8.10;99.90;;;;;;4951541;28;20020;-76
2021/09/25 05:00:33;;;;;;;20.33;14.73;;;8.10;99.90;;;;;;4953076;28;20107;-76
2021/09/25 05:02:59;;;;;;;24.63;14.75;;;8.10;99.90;;;;;;4952327;28;20061;-76
2021/09/25 05:05:25;;;;;;;26.13;14.30;;;8.10;99.90;;;;;;4956000;29;20529;-77
2021/09/25 05:07:50;;;;;;;21.30;13.82;;;8.10;99.90;;;;;;4956649;28;20037;-77
2021/09/25 05:10:16;;;;;;;17.90;13.13;;;8.10;99.90;;;;;;4956716;28;20445;-77
2021/09/25 05:12:43;;;;;;;23.52;14.20;;;8.10;99.90;;;;;;4957377;28;20031;-77
2021/09/25 05:15:09;;;;;;;21.80;13.80;;;8.10;99.90;;;;;;4955753;28;20034;-77
2021/09/25 05:17:37;;;;;;;23.23;13.52;;;8.10;99.90;;;;;;4956384;29;20082;-77
2021/09/25 05:20:05;;;;;;;18.88;13.13;;;8.10;99.90;;;;;;4957389;28;20032;-77
2021/09/25 05:22:31;;;;;;;18.83;12.77;;;8.00;99.90;;;;;;4957147;28;20063;-77
2021/09/25 05:24:57;;;;;;;20.23;12.98;;;8.00;99.90;;;;;;4955898;29;20038;-77
2021/09/25 05:27:23;;;;;;;20.00;12.85;;;8.10;99.90;;;;;;4956468;28;20031;-78
2021/09/25 05:29:48;;;;;;;19.67;13.20;;;8.10;99.90;;;;;;4956596;28;20027;-77
2021/09/25 05:32:14;;;;;;;18.77;12.18;;;8.10;99.90;;;;;;4957037;28;20023;-77
2021/09/25 05:34:42;;;;;;;20.13;12.70;;;8.10;99.90;;;;;;4956911;28;20027;-77
2021/09/25 05:37:08;;;;;;;22.27;12.05;;;8.10;99.90;;;;;;4955965;28;20019;-77
2021/09/25 05:39:34;;;;;;;16.45;11.70;;;8.20;99.90;;;;;;4957290;28;20477;-77
2021/09/25 05:42:00;;;;;;;16.85;11.98;;;8.10;99.90;;;;;;4957749;28;20166;-76
2021/09/25 05:44:26;;;;;;;16.75;12.02;;;8.10;99.90;;;;;;4956759;28;20031;-77
2021/09/25 05:46:52;;;;;;;20.88;11.23;;;8.10;99.90;;;;;;4956288;28;20470;-77
2021/09/25 05:49:18;;;;;;;16.23;11.52;;;8.10;99.90;;;;;;4957493;28;20027;-77
2021/09/25 05:51:43;;;;;;;17.70;11.20;;;8.20;99.90;;;;;;4957546;28;20065;-77
2021/09/25 05:54:09;;;;;;;13.55;10.65;;;8.20;99.90;;;;;;4955802;28;20037;-77
2021/09/25 05:56:35;;;;;;;17.60;11.00;;;8.20;99.90;;;;;;4956129;29;20035;-77
2021/09/25 05:59:01;;;;;;;18.92;12.32;;;8.30;99.90;;;;;;4956402;29;20027;-78
2021/09/25 06:01:26;;;;;;;15.27;10.88;;;8.40;99.90;;;;;;4956857;28;20038;-77
2021/09/25 06:03:52;;;;;;;19.65;11.85;;;8.40;99.90;;;;;;4957362;28;20460;-77
2021/09/25 06:06:18;;;;;;;17.15;11.98;;;8.40;99.90;;;;;;4956225;29;20440;-77
2021/09/25 06:08:43;;;;;;;18.23;12.38;;;8.50;99.90;;;;;;4957134;28;20401;-77
2021/09/25 06:11:09;;;;;;;20.73;12.65;;;8.60;99.90;;;;;;4955732;28;20035;-77
2021/09/25 06:13:35;;;;;;;19.10;13.00;;;8.60;99.90;;;;;;4957176;28;20486;-77
2021/09/25 06:16:00;;;;;;;17.05;12.13;;;8.70;99.90;;;;;;4955950;28;20382;-77
2021/09/25 06:18:26;;;;;;;19.55;12.38;;;8.70;99.90;;;;;;4948003;29;20042;-76
2021/09/25 06:20:52;;;;;;;23.30;12.38;;;8.80;99.90;;;;;;4956480;28;20028;-76
2021/09/25 06:23:18;;;;;;;25.95;13.70;;;8.80;99.90;;;;;;4956909;29;20445;-75
2021/09/25 06:25:43;;;;;;;22.75;12.80;;;8.90;99.90;;;;;;4956033;28;20027;-76
2021/09/25 06:28:09;;;;;;;16.27;11.63;;;9.00;99.90;;;;;;4956720;28;20027;-75
2021/09/25 06:30:40;;;;;;;17.27;12.50;;;9.00;99.90;;;;;;4956160;28;20046;-79
2021/09/25 06:33:10;;;;;;;17.40;12.55;;;9.10;99.90;;;;;;4955910;28;20043;-74
2021/09/25 06:35:36;;;;;;;18.90;11.50;;;9.10;99.90;;;;;;4955201;28;20024;-75
2021/09/25 06:38:03;;;;;;;17.02;11.07;;;9.10;99.90;;;;;;4956329;28;20034;-75
2021/09/25 06:40:29;;;;;;;20.55;12.13;;;9.30;99.90;;;;;;4955341;28;20155;-75
2021/09/25 06:42:55;;;;;;;17.02;12.30;;;9.30;99.90;;;;;;4956292;28;20568;-75
2021/09/25 06:45:20;;;;;;;19.27;13.70;;;9.50;99.90;;;;;;4954333;28;20028;-75
2021/09/25 06:47:46;;;;;;;16.80;12.18;;;9.30;99.90;;;;;;4956166;28;20023;-75
2021/09/25 06:50:12;;;;;;;18.45;12.15;;;9.30;99.90;;;;;;4955647;28;20031;-75
2021/09/25 06:52:37;;;;;;;16.13;12.27;;;9.40;99.90;;;;;;4956381;28;20043;-77
2021/09/25 06:55:04;;;;;;;21.98;11.40;;;9.50;99.90;;;;;;4955314;28;20021;-77
2021/09/25 06:57:30;;;;;;;14.60;11.23;;;9.60;99.90;;;;;;4956296;28;20110;-78
2021/09/25 06:59:56;;;;;;;16.17;11.68;;;9.70;99.90;;;;;;4953069;29;20037;-77
2021/09/25 07:02:22;;;;;;;15.07;10.98;;;9.70;99.90;;;;;;4955422;28;20532;-77
2021/09/25 07:04:47;;;;;;;12.02;10.18;;;9.70;99.90;;;;;;4954937;28;20367;-76
2021/09/25 07:07:13;;;;;;;15.77;10.30;;;9.70;99.90;;;;;;4956526;28;20626;-77
2021/09/25 07:09:41;;;;;;;15.55;10.50;;;9.80;99.90;;;;;;4954685;28;20027;-76
2021/09/25 07:12:08;;;;;;;11.82;9.98;;;9.80;99.90;;;;;;4956458;28;20027;-76
2021/09/25 07:14:34;;;;;;;14.82;10.00;;;9.90;99.90;;;;;;4955009;28;20448;-76
2021/09/25 07:17:00;;;;;;;11.63;9.52;;;10.00;99.90;;;;;;4959265;28;20047;-76
2021/09/25 07:19:26;;;;;;;11.77;8.80;;;10.00;99.90;;;;;;4959068;28;20397;-76
2021/09/25 07:21:51;;;;;;;15.95;10.20;;;10.10;99.90;;;;;;4954257;28;20031;-76
2021/09/25 07:24:17;;;;;;;10.60;8.95;;;10.30;99.90;;;;;;4954505;28;20090;-75
2021/09/25 07:26:43;;;;;;;12.43;8.77;;;10.40;99.90;;;;;;4954041;28;20035;-76
2021/09/25 07:29:08;;;;;;;14.38;9.63;;;10.50;99.90;;;;;;4955101;28;20035;-76
2021/09/25 07:31:34;;;;;;;11.45;9.15;;;10.70;99.90;;;;;;4954372;28;20118;-76
2021/09/25 07:34:00;;;;;;;13.43;9.85;;;10.80;99.90;;;;;;4954901;28;20045;-76
2021/09/25 07:36:27;;;;;;;13.80;8.90;;;11.10;99.90;;;;;;4954214;28;20516;-76
2021/09/25 07:38:56;;;;;;;11.60;9.27;;;11.20;99.90;;;;;;4954552;28;20058;-75
2021/09/25 07:41:23;;;;;;;10.30;8.45;;;11.20;99.90;;;;;;4954124;28;20348;-76
2021/09/25 07:43:49;;;;;;;16.13;8.88;;;11.30;99.90;;;;;;4954853;28;20027;-77
2021/09/25 07:46:15;;;;;;;8.55;7.65;;;11.50;99.90;;;;;;4954114;28;20106;-78
2021/09/25 07:48:41;;;;;;;9.45;8.20;;;11.70;99.90;;;;;;4954262;28;20110;-76
2021/09/25 07:51:07;;;;;;;9.55;8.32;;;11.90;99.90;;;;;;4954081;28;20371;-77
2021/09/25 07:53:33;;;;;;;12.57;8.70;;;12.10;99.90;;;;;;4954655;28;20111;-77
2021/09/25 07:55:58;;;;;;;12.13;7.95;;;12.30;99.90;;;;;;4954697;28;20066;-77
2021/09/25 07:58:24;;;;;;;9.68;7.72;;;12.40;99.90;;;;;;4971163;28;20023;-77
2021/09/25 08:00:51;;;;;;;12.52;8.05;;;12.60;99.90;;;;;;4971880;28;20034;-76
2021/09/25 08:03:20;;;;;;;8.10;7.13;;;12.80;99.90;;;;;;4968949;28;20042;-76
2021/09/25 08:05:46;;;;;;;10.60;8.02;;;13.00;99.90;;;;;;4965754;28;20134;-76
2021/09/25 08:08:12;;;;;;;13.02;7.82;;;13.20;99.90;;;;;;4965421;28;20084;-76
2021/09/25 08:10:37;;;;;;;10.77;7.90;;;13.20;99.90;;;;;;4963265;28;20039;-76
2021/09/25 08:13:03;;;;;;;8.57;7.38;;;13.40;99.90;;;;;;4954216;28;20029;-76
2021/09/25 08:15:30;;;;;;;8.18;7.32;;;13.80;99.90;;;;;;4953410;28;20434;-76
2021/09/25 08:17:56;;;;;;;8.57;6.63;;;14.20;99.90;;;;;;4953755;28;20030;-77
2021/09/25 08:20:23;;;;;;;7.13;6.43;;;14.80;99.90;;;;;;4953470;28;20035;-76
2021/09/25 08:22:50;;;;;;;7.25;6.40;;;15.70;99.90;;;;;;4953927;28;20035;-75
2021/09/25 08:25:16;;;;;;;6.93;5.78;;;15.80;99.90;;;;;;4953509;28;20484;-74
2021/09/25 08:27:43;;;;;;;10.20;5.95;;;16.20;99.90;;;;;;4954162;28;20367;-75
2021/09/25 08:30:10;;;;;;;5.75;5.22;;;15.90;99.90;;;;;;4952605;29;20541;-75
2021/09/25 08:32:36;;;;;;;6.30;5.68;;;16.20;99.90;;;;;;4953222;28;20038;-75
2021/09/25 08:35:03;;;;;;;5.75;5.25;;;16.20;99.90;;;;;;4953270;28;20027;-73
2021/09/25 08:37:28;;;;;;;8.50;4.93;;;17.00;99.90;;;;;;4953006;28;20019;-76
2021/09/25 08:39:54;;;;;;;7.00;5.38;;;17.50;99.90;;;;;;4953581;28;20315;-73
2021/09/25 08:42:20;;;;;;;5.78;5.15;;;17.80;99.90;;;;;;4953350;28;20516;-72
2021/09/25 08:44:51;;;;;;;5.40;4.90;;;18.20;99.90;;;;;;4953666;28;20035;-73
2021/09/25 08:47:18;;;;;;;6.25;5.22;;;19.30;99.90;;;;;;4953323;28;20035;-74
2021/09/25 08:49:44;;;;;;;4.88;4.47;;;20.10;99.90;;;;;;4952957;28;20054;-73
2021/09/25 08:52:10;;;;;;;7.05;5.13;;;20.40;99.90;;;;;;4953361;28;20027;-73
2021/09/25 08:54:35;;;;;;;5.78;5.28;;;18.70;99.90;;;;;;4953472;28;20115;-73
2021/09/25 08:57:06;;;;;;;5.22;4.65;;;19.60;99.90;;;;;;4953637;28;20106;-76
2021/09/25 08:59:32;;;;;;;5.90;5.28;;;19.90;99.90;;;;;;4953816;28;20394;-75
2021/09/25 09:02:18;;;;;;;5.55;5.15;;;19.50;99.90;;;;;;4952616;28;20023;-74
2021/09/25 09:04:49;;;;;;;6.38;5.07;;;18.80;99.90;;;;;;4953140;28;20020;-75
2021/09/25 09:07:28;;;;;;;6.97;4.40;;;19.60;99.90;;;;;;4952208;28;20023;-75
2021/09/25 09:09:54;;;;;;;5.38;4.90;;;20.50;99.90;;;;;;4953582;28;20024;-75
2021/09/25 09:12:25;;;;;;;5.63;4.43;;;21.30;99.90;;;;;;4953051;28;20216;-74
2021/09/25 09:14:52;;;;;;;6.82;4.45;;;22.80;99.90;;;;;;4952964;28;20038;-73
2021/09/25 09:17:27;;;;;;;4.55;4.25;;;24.20;99.90;;;;;;4953614;28;20026;-75
2021/09/25 09:19:54;;;;;;;5.60;3.88;;;25.20;99.90;;;;;;4953746;28;20094;-74
2021/09/25 09:22:22;;;;;;;7.80;4.07;;;25.40;98.10;;;;;;4953248;28;20866;-73
2021/09/25 09:24:54;;;;;;;5.28;3.70;;;26.00;97.30;;;;;;4952808;28;20090;-73
2021/09/25 09:27:22;;;;;;;4.72;4.32;;;26.50;95.70;;;;;;4951859;28;20050;-72
2021/09/25 09:29:48;;;;;;;5.05;4.03;;;26.60;94.50;;;;;;4956159;28;20023;-75
2021/09/25 09:32:14;;;;;;;4.25;3.53;;;25.70;95.30;;;;;;4953689;28;20766;-74
2021/09/25 09:34:42;;;;;;;6.80;4.10;;;25.70;95.40;;;;;;4952195;28;20036;-72
2021/09/25 09:37:16;;;;;;;6.47;4.75;;;23.90;97.30;;;;;;4952978;28;20027;-74
2021/09/25 09:39:43;;;;;;;3.78;3.50;;;24.60;97.00;;;;;;4952742;28;20398;-74
2021/09/25 09:42:08;;;;;;;3.67;3.40;;;24.30;96.60;;;;;;4952743;28;20028;-74
2021/09/25 09:44:34;;;;;;;4.72;4.22;;;25.50;97.70;;;;;;4951921;28;20023;-74
2021/09/25 09:47:04;;;;;;;3.88;3.55;;;26.00;94.10;;;;;;4952773;28;20027;-75
2021/09/25 09:49:38;;;;;;;8.30;3.75;;;26.20;94.30;;;;;;4953401;28;20078;-76
2021/09/25 09:52:06;;;;;;;5.63;3.53;;;25.80;92.80;;;;;;4956983;28;20028;-72
2021/09/25 09:54:34;;;;;;;4.20;3.90;;;25.70;95.20;;;;;;4955469;28;20066;-72
2021/09/25 09:57:02;;;;;;;5.13;3.08;;;26.40;93.60;;;;;;4956601;28;20331;-74
2021/09/25 09:59:28;;;;;;;5.10;3.60;;;27.10;92.80;;;;;;4943627;29;20050;-73
2021/09/25 10:01:54;;;;;;;3.58;3.28;;;27.70;90.60;;;;;;4954810;28;20039;-74
2021/09/25 10:04:21;;;;;;;3.15;2.95;;;26.50;92.30;;;;;;4958350;28;20027;-75
2021/09/25 10:06:48;;;;;;;4.75;3.30;;;27.20;93.10;;;;;;4959463;28;20023;-73
2021/09/25 10:09:19;;;;;;;4.53;3.22;;;29.40;91.20;;;;;;4959368;28;20090;-73
2021/09/25 10:11:48;;;;;;;2.50;2.33;;;29.30;90.00;;;;;;4958285;28;20023;-73
2021/09/25 10:14:19;;;;;;;3.30;3.00;;;28.60;89.70;;;;;;4955201;28;20035;-73
2021/09/25 10:16:46;;;;;;;3.40;3.10;;;29.40;90.10;;;;;;4958648;28;20050;-75
2021/09/25 10:19:14;;;;;;;3.05;2.85;;;31.20;84.30;;;;;;4938590;28;20032;-75
2021/09/25 10:21:40;;;;;;;2.75;2.55;;;31.80;79.30;;;;;;4941623;29;20117;-75
2021/09/25 10:24:10;;;;;;;3.78;2.80;;;32.30;80.00;;;;;;4955790;28;20043;-75
2021/09/25 10:26:43;;;;;;;5.07;3.10;;;31.60;74.70;;;;;;4955469;28;20046;-75
2021/09/25 10:29:10;;;;;;;3.20;2.97;;;30.20;81.10;;;;;;5032210;23;20042;-82
2021/09/25 10:31:36;;;;;;;5.53;2.97;;;29.70;80.00;;;;;;4997983;28;20018;-80
2021/09/25 10:34:06;;;;;;;3.15;2.88;;;30.30;82.00;;;;;;4996816;28;20038;-84
2021/09/25 10:36:48;;;;;;;6.70;2.60;;;29.90;81.80;;;;;;4997537;28;20066;-80
2021/09/25 10:39:18;;;;;;;2.63;2.42;;;29.50;77.00;;;;;;4982098;28;20286;-78
2021/09/25 10:41:45;;;;;;;4.15;2.90;;;29.10;83.40;;;;;;4994845;28;20031;-78
2021/09/25 10:44:30;;;;;;;2.85;2.50;;;30.20;79.90;;;;;;4977488;28;20437;-79
2021/09/25 10:47:20;;;;;;;2.80;2.70;;;31.50;77.20;;;;;;4959042;29;20082;-79
2021/09/25 10:49:51;;;;;;;3.95;2.42;;;31.60;75.00;;;;;;4959320;28;20059;-81
2021/09/25 10:52:20;;;;;;;2.97;2.53;;;32.60;73.60;;;;;;4979471;28;20027;-81
2021/09/25 10:55:19;;;;;;;3.60;2.35;;;32.60;73.40;;;;;;4977846;28;20042;-81
2021/09/25 10:58:16;;;;;;;5.78;2.70;;;32.80;73.00;;;;;;4978624;28;20313;-81
2021/09/25 11:00:55;;;;;;;3.08;2.70;;;33.60;69.00;;;;;;4977683;28;20022;-80
2021/09/25 11:03:43;;;;;;;3.42;2.80;;;34.30;67.10;;;;;;4977689;28;20054;-81
2021/09/25 11:06:24;;;;;;;2.78;2.58;;;34.60;66.50;;;;;;4977258;28;20053;-80
2021/09/25 11:09:27;;;;;;;3.00;2.80;;;34.20;68.90;;;;;;4978077;28;20022;-80
2021/09/25 11:11:55;;;;;;;2.78;2.58;;;33.20;66.50;;;;;;4957928;28;20037;-80
2021/09/25 11:14:22;;;;;;;2.88;2.60;;;31.60;70.70;;;;;;4977728;28;20070;-82
2021/09/25 11:16:56;;;;;;;3.95;3.28;;;30.00;74.10;;;;;;4979525;28;20505;-82
2021/09/25 11:19:21;;;;;;;4.50;3.70;;;30.50;77.60;;;;;;4978702;28;20049;-80
2021/09/25 11:21:57;;;;;;;2.80;2.60;;;32.30;73.10;;;;;;4978551;28;20481;-80
2021/09/25 11:24:24;;;;;;;2.58;2.38;;;32.80;68.70;;;;;;4978036;28;20058;-80
2021/09/25 11:26:50;;;;;;;2.75;2.35;;;32.50;69.00;;;;;;4976370;28;20034;-80
2021/09/25 11:29:16;;;;;;;2.30;2.20;;;31.00;70.00;;;;;;4975040;28;20076;-79
2021/09/25 11:31:47;;;;;;;2.45;2.13;;;31.80;70.20;;;;;;4978399;28;20030;-79
2021/09/25 11:34:39;;;;;;;;;;;30.60;71.30;;;;;;4982042;28;20038;-80
2021/09/25 11:37:05;;;;;;;;;;;31.00;72.60;;;;;;4978002;28;19928;-79
2021/09/25 11:39:46;;;;;;;2.25;2.05;;;32.40;71.10;;;;;;4978279;28;19906;-80
2021/09/25 11:42:28;;;;;;;4.90;2.15;;;32.70;68.10;;;;;;4976003;28;20362;-81
2021/09/25 11:44:56;;;;;;;3.03;2.38;;;33.60;67.30;;;;;;4976527;28;20035;-80
2021/09/25 11:47:23;;;;;;;3.22;2.25;;;34.40;64.40;;;;;;4978539;28;20087;-80
2021/09/25 11:49:49;;;;;;;3.17;2.08;;;32.10;64.90;;;;;;4976949;28;20038;-80
2021/09/25 11:52:15;;;;;;;2.30;2.20;;;31.80;68.90;;;;;;4976971;28;20019;-78
2021/09/25 11:54:41;;;;;;;2.00;1.80;;;31.90;67.60;;;;;;4976241;28;20514;-81
2021/09/25 11:57:19;;;;;;;1.88;1.77;;;31.70;67.20;;;;;;4977053;28;20065;-80
2021/09/25 11:59:46;;;;;;;2.30;1.90;;;32.20;65.10;;;;;;4974017;28;20027;-79
2021/09/25 12:02:38;;;;;;;1.90;1.80;;;32.40;64.80;;;;;;4975915;28;20086;-80
2021/09/25 12:05:06;;;;;;;5.68;4.78;;;32.80;66.20;;;;;;4974603;28;20026;-79
2021/09/25 12:07:45;;;;;;;4.05;3.40;;;33.40;65.80;;;;;;4975173;28;20026;-81
2021/09/25 12:10:19;;;;;;;2.72;2.53;;;33.50;63.40;;;;;;4975610;28;20023;-80
2021/09/25 12:12:45;;;;;;;2.15;2.05;;;33.70;63.70;;;;;;4974771;28;20030;-80
2021/09/25 12:15:12;;;;;;;4.07;2.65;;;32.80;64.10;;;;;;4976481;28;20026;-81
2021/09/25 12:17:38;;;;;;;4.10;2.40;;;31.70;66.90;;;;;;4978016;28;20026;-80
2021/09/25 12:20:17;;;;;;;3.22;2.65;;;31.70;69.10;;;;;;4977417;28;20073;-80
2021/09/25 12:22:45;;;;;;;5.07;2.85;;;32.70;67.80;;;;;;4977468;28;20174;-80
2021/09/25 12:25:12;;;;;;;3.33;2.80;;;33.40;64.50;;;;;;4976367;28;20114;-80
2021/09/25 12:27:41;;;;;;;2.85;2.20;;;33.70;65.90;;;;;;4977331;28;20042;-80
2021/09/25 12:30:09;;;;;;;2.75;2.15;;;33.50;64.50;;;;;;4976903;28;20019;-80
2021/09/25 12:32:35;;;;;;;2.20;2.00;;;32.70;64.90;;;;;;4977185;28;20023;-80
2021/09/25 12:35:00;;;;;;;3.88;2.22;;;32.60;65.70;;;;;;4977102;28;20034;-80
2021/09/25 12:37:26;;;;;;;2.40;2.20;;;32.00;67.40;;;;;;4977095;28;20027;-80
2021/09/25 12:39:52;;;;;;;3.47;2.13;;;31.90;68.40;;;;;;4994864;28;20018;-78
2021/09/25 12:42:26;;;;;;;5.05;2.22;;;32.30;67.80;;;;;;4991177;28;20046;-81